Ada, Oklahoma
Current Conditions -  °F | °C
As of 8:55 PM on Sunday 23 Nov 2014 (Local Time) from KADH Reporting Station
Overcast Overcast  
Wind Chill:   Ceiling: 2300
Heat Index:   Visibility: 10mi
Dew Point:   Wind: 18mph
Humidity: 87%   Direction: 320°NW
Pressure: 29.65"   Gusts: 24mph
Location:  34.78°N, 96.68°W
Report Text: KADH 240255Z AUTO 32016G21KT 10SM BKN023 OVC028 07/05 A2965 RMK AO2
Loading
Personal Weather Stations






























Interactive Weather Map New forecast layout! Learn more

10-Day Weather Forecast

Advertisements
Track Severe Weather on mobile